sensor_id;sensor_type;location;lat;lon;timestamp;pressure;altitude;pressure_sealevel;temperature;humidity
52957;BME280;38819;42.692;23.342;2023-05-22T00:01:22;95047.31;;;15.34;72.38
52957;BME280;38819;42.692;23.342;2023-05-22T00:03:53;95044.88;;;15.41;72.51
52957;BME280;38819;42.692;23.342;2023-05-22T00:06:19;95041.22;;;15.37;72.96
52957;BME280;38819;42.692;23.342;2023-05-22T00:08:46;95039.44;;;15.41;71.71
52957;BME280;38819;42.692;23.342;2023-05-22T00:11:11;95040.03;;;15.47;71.17
52957;BME280;38819;42.692;23.342;2023-05-22T00:13:37;95037.28;;;15.55;71.25
52957;BME280;38819;42.692;23.342;2023-05-22T00:16:02;95046.06;;;15.61;71.25
52957;BME280;38819;42.692;23.342;2023-05-22T00:18:27;95039.06;;;15.51;70.80
52957;BME280;38819;42.692;23.342;2023-05-22T00:20:53;95046.84;;;15.62;70.41
52957;BME280;38819;42.692;23.342;2023-05-22T00:23:18;95040.22;;;15.71;70.34
52957;BME280;38819;42.692;23.342;2023-05-22T00:25:46;95043.75;;;15.72;70.29
52957;BME280;38819;42.692;23.342;2023-05-22T00:28:11;95035.94;;;15.70;70.05
52957;BME280;38819;42.692;23.342;2023-05-22T00:30:37;95042.13;;;15.80;69.88
52957;BME280;38819;42.692;23.342;2023-05-22T00:33:03;95043.41;;;15.73;69.86
52957;BME280;38819;42.692;23.342;2023-05-22T00:35:28;95051.56;;;15.82;69.81
52957;BME280;38819;42.692;23.342;2023-05-22T00:37:54;95047.38;;;15.85;69.88
52957;BME280;38819;42.692;23.342;2023-05-22T00:40:20;95044.19;;;15.83;69.82
52957;BME280;38819;42.692;23.342;2023-05-22T00:42:46;95047.19;;;15.90;69.32
52957;BME280;38819;42.692;23.342;2023-05-22T00:45:13;95058.06;;;15.90;69.29
52957;BME280;38819;42.692;23.342;2023-05-22T00:47:39;95051.97;;;15.93;69.51
52957;BME280;38819;42.692;23.342;2023-05-22T00:50:05;95043.16;;;15.96;69.14
52957;BME280;38819;42.692;23.342;2023-05-22T00:52:34;95042.34;;;15.96;68.97
52957;BME280;38819;42.692;23.342;2023-05-22T00:55:01;95044.41;;;15.99;68.92
52957;BME280;38819;42.692;23.342;2023-05-22T00:57:28;95046.13;;;16.03;68.91
52957;BME280;38819;42.692;23.342;2023-05-22T00:59:55;95057.22;;;15.98;68.86
52957;BME280;38819;42.692;23.342;2023-05-22T01:02:20;95048.72;;;16.00;68.53
52957;BME280;38819;42.692;23.342;2023-05-22T01:04:46;95048.06;;;16.03;68.69
52957;BME280;38819;42.692;23.342;2023-05-22T01:07:15;95042.03;;;15.97;68.82
52957;BME280;38819;42.692;23.342;2023-05-22T01:09:42;95034.50;;;15.94;68.99
52957;BME280;38819;42.692;23.342;2023-05-22T01:15:30;95043.81;;;15.93;69.32
52957;BME280;38819;42.692;23.342;2023-05-22T01:18:14;95046.41;;;15.89;70.13
52957;BME280;38819;42.692;23.342;2023-05-22T01:21:07;95051.72;;;15.86;69.42
52957;BME280;38819;42.692;23.342;2023-05-22T01:31:59;95033.56;;;15.90;69.48
52957;BME280;38819;42.692;23.342;2023-05-22T01:34:27;95025.06;;;15.91;69.09
52957;BME280;38819;42.692;23.342;2023-05-22T01:36:53;95023.31;;;15.87;69.14
52957;BME280;38819;42.692;23.342;2023-05-22T01:39:20;95026.38;;;15.85;69.27
52957;BME280;38819;42.692;23.342;2023-05-22T01:41:46;95029.78;;;15.82;69.75
52957;BME280;38819;42.692;23.342;2023-05-22T01:44:12;95025.47;;;15.81;69.90
52957;BME280;38819;42.692;23.342;2023-05-22T01:46:37;95025.16;;;15.74;70.06
52957;BME280;38819;42.692;23.342;2023-05-22T01:49:03;95020.84;;;15.73;70.02
52957;BME280;38819;42.692;23.342;2023-05-22T01:51:51;95026.13;;;15.78;69.85
52957;BME280;38819;42.692;23.342;2023-05-22T01:57:25;95029.34;;;15.71;70.16
52957;BME280;38819;42.692;23.342;2023-05-22T02:00:18;95028.09;;;15.60;70.43
52957;BME280;38819;42.692;23.342;2023-05-22T02:02:54;95024.66;;;15.51;71.09
52957;BME280;38819;42.692;23.342;2023-05-22T02:05:22;95020.66;;;15.48;71.04
52957;BME280;38819;42.692;23.342;2023-05-22T02:07:49;95016.88;;;15.41;70.98
52957;BME280;38819;42.692;23.342;2023-05-22T02:10:15;95022.41;;;15.53;70.97
52957;BME280;38819;42.692;23.342;2023-05-22T02:12:41;95019.25;;;15.42;71.63
52957;BME280;38819;42.692;23.342;2023-05-22T02:15:07;95019.44;;;15.37;72.26
52957;BME280;38819;42.692;23.342;2023-05-22T02:17:39;95026.50;;;15.29;72.29
52957;BME280;38819;42.692;23.342;2023-05-22T02:20:08;95027.50;;;15.25;72.44
52957;BME280;38819;42.692;23.342;2023-05-22T02:22:40;95023.38;;;15.18;72.73
52957;BME280;38819;42.692;23.342;2023-05-22T02:25:06;95012.38;;;15.06;72.68
52957;BME280;38819;42.692;23.342;2023-05-22T02:27:35;95025.34;;;15.00;72.96
52957;BME280;38819;42.692;23.342;2023-05-22T02:30:01;95020.06;;;15.04;72.94
52957;BME280;38819;42.692;23.342;2023-05-22T02:32:26;95022.97;;;14.99;73.20
52957;BME280;38819;42.692;23.342;2023-05-22T02:34:52;95019.28;;;14.95;73.25
52957;BME280;38819;42.692;23.342;2023-05-22T02:37:17;95029.19;;;14.99;73.21
52957;BME280;38819;42.692;23.342;2023-05-22T02:39:43;95036.59;;;14.90;73.55
52957;BME280;38819;42.692;23.342;2023-05-22T02:42:08;95028.25;;;14.87;73.75
52957;BME280;38819;42.692;23.342;2023-05-22T02:44:34;95023.50;;;14.84;73.77
52957;BME280;38819;42.692;23.342;2023-05-22T02:46:59;95021.59;;;14.75;74.09
52957;BME280;38819;42.692;23.342;2023-05-22T02:49:24;95020.44;;;14.76;74.00
52957;BME280;38819;42.692;23.342;2023-05-22T02:51:50;95028.13;;;14.74;74.22
52957;BME280;38819;42.692;23.342;2023-05-22T02:54:15;95027.84;;;14.67;74.70
52957;BME280;38819;42.692;23.342;2023-05-22T02:56:44;95013.28;;;14.63;75.04
52957;BME280;38819;42.692;23.342;2023-05-22T02:59:09;95019.84;;;14.62;74.89
52957;BME280;38819;42.692;23.342;2023-05-22T03:01:35;95025.13;;;14.67;74.74
52957;BME280;38819;42.692;23.342;2023-05-22T03:04:03;95026.88;;;14.63;74.74
52957;BME280;38819;42.692;23.342;2023-05-22T03:06:28;95019.03;;;14.61;74.80
52957;BME280;38819;42.692;23.342;2023-05-22T03:08:54;95020.16;;;14.52;74.80
52957;BME280;38819;42.692;23.342;2023-05-22T03:11:20;95017.91;;;14.54;75.02
52957;BME280;38819;42.692;23.342;2023-05-22T03:13:45;95020.63;;;14.54;74.97
52957;BME280;38819;42.692;23.342;2023-05-22T03:16:11;95028.47;;;14.55;75.07
52957;BME280;38819;42.692;23.342;2023-05-22T03:18:36;95024.97;;;14.63;74.52
52957;BME280;38819;42.692;23.342;2023-05-22T03:21:02;95024.47;;;14.70;74.26
52957;BME280;38819;42.692;23.342;2023-05-22T03:23:27;95021.09;;;14.73;74.02
52957;BME280;38819;42.692;23.342;2023-05-22T03:25:52;95023.50;;;14.75;73.81
52957;BME280;38819;42.692;23.342;2023-05-22T03:28:18;95029.44;;;14.77;73.65
52957;BME280;38819;42.692;23.342;2023-05-22T03:30:43;95018.56;;;14.77;73.55
52957;BME280;38819;42.692;23.342;2023-05-22T03:33:09;95025.09;;;14.76;73.70
52957;BME280;38819;42.692;23.342;2023-05-22T03:35:35;95019.97;;;14.74;73.69
52957;BME280;38819;42.692;23.342;2023-05-22T03:38:01;95025.59;;;14.69;74.04
52957;BME280;38819;42.692;23.342;2023-05-22T03:40:26;95026.69;;;14.68;73.86
52957;BME280;38819;42.692;23.342;2023-05-22T03:42:52;95030.06;;;14.74;73.85
52957;BME280;38819;42.692;23.342;2023-05-22T03:45:17;95019.22;;;14.65;74.06
52957;BME280;38819;42.692;23.342;2023-05-22T03:47:42;95021.75;;;14.70;74.20
52957;BME280;38819;42.692;23.342;2023-05-22T03:50:08;95024.81;;;14.69;74.49
52957;BME280;38819;42.692;23.342;2023-05-22T03:52:34;95021.59;;;14.75;74.15
52957;BME280;38819;42.692;23.342;2023-05-22T03:54:59;95032.94;;;14.77;74.23
52957;BME280;38819;42.692;23.342;2023-05-22T03:57:26;95028.94;;;14.84;73.91
52957;BME280;38819;42.692;23.342;2023-05-22T03:59:51;95028.25;;;14.87;74.04
52957;BME280;38819;42.692;23.342;2023-05-22T04:02:16;95029.69;;;14.93;74.00
52957;BME280;38819;42.692;23.342;2023-05-22T04:04:42;95030.47;;;15.02;73.67
52957;BME280;38819;42.692;23.342;2023-05-22T04:07:13;95035.09;;;15.10;73.29
52957;BME280;38819;42.692;23.342;2023-05-22T04:09:39;95032.19;;;15.15;73.13
52957;BME280;38819;42.692;23.342;2023-05-22T04:12:05;95031.84;;;15.17;73.71
52957;BME280;38819;42.692;23.342;2023-05-22T04:14:31;95034.53;;;15.26;73.71
52957;BME280;38819;42.692;23.342;2023-05-22T04:16:57;95033.75;;;15.25;74.06
52957;BME280;38819;42.692;23.342;2023-05-22T04:19:23;95043.78;;;15.33;73.75
52957;BME280;38819;42.692;23.342;2023-05-22T04:21:48;95035.59;;;15.33;73.82
52957;BME280;38819;42.692;23.342;2023-05-22T04:24:13;95031.78;;;15.34;73.92
52957;BME280;38819;42.692;23.342;2023-05-22T04:26:39;95034.78;;;15.42;74.07
52957;BME280;38819;42.692;23.342;2023-05-22T04:29:04;95041.81;;;15.43;73.95
52957;BME280;38819;42.692;23.342;2023-05-22T04:31:35;95043.25;;;15.40;74.07
52957;BME280;38819;42.692;23.342;2023-05-22T04:34:00;95040.22;;;15.42;74.31
52957;BME280;38819;42.692;23.342;2023-05-22T04:36:26;95040.66;;;15.52;74.15
52957;BME280;38819;42.692;23.342;2023-05-22T04:38:52;95043.84;;;15.54;73.75
52957;BME280;38819;42.692;23.342;2023-05-22T04:41:18;95043.19;;;15.57;73.80
52957;BME280;38819;42.692;23.342;2023-05-22T04:43:49;95044.28;;;15.65;73.57
52957;BME280;38819;42.692;23.342;2023-05-22T04:46:14;95044.06;;;15.79;73.03
52957;BME280;38819;42.692;23.342;2023-05-22T04:48:40;95049.06;;;15.98;72.29
52957;BME280;38819;42.692;23.342;2023-05-22T04:51:06;95046.22;;;16.16;71.64
52957;BME280;38819;42.692;23.342;2023-05-22T04:53:31;95041.16;;;16.26;70.81
52957;BME280;38819;42.692;23.342;2023-05-22T04:56:00;95048.13;;;16.36;70.01
52957;BME280;38819;42.692;23.342;2023-05-22T04:58:26;95046.00;;;16.42;69.09
52957;BME280;38819;42.692;23.342;2023-05-22T05:00:54;95043.06;;;16.47;68.86
52957;BME280;38819;42.692;23.342;2023-05-22T05:03:22;95040.13;;;16.52;68.84
52957;BME280;38819;42.692;23.342;2023-05-22T05:05:47;95048.38;;;16.64;68.31
52957;BME280;38819;42.692;23.342;2023-05-22T05:08:13;95051.34;;;16.72;67.86
52957;BME280;38819;42.692;23.342;2023-05-22T05:10:38;95054.84;;;16.72;67.33
52957;BME280;38819;42.692;23.342;2023-05-22T05:13:03;95052.94;;;16.73;66.57
52957;BME280;38819;42.692;23.342;2023-05-22T05:15:30;95058.97;;;16.78;66.34
52957;BME280;38819;42.692;23.342;2023-05-22T05:17:55;95056.91;;;16.96;66.32
52957;BME280;38819;42.692;23.342;2023-05-22T05:20:20;95057.25;;;16.95;66.14
52957;BME280;38819;42.692;23.342;2023-05-22T05:22:46;95064.88;;;17.01;65.72
52957;BME280;38819;42.692;23.342;2023-05-22T05:25:12;95050.34;;;17.10;64.88
52957;BME280;38819;42.692;23.342;2023-05-22T05:27:37;95060.03;;;17.19;64.33
52957;BME280;38819;42.692;23.342;2023-05-22T05:30:03;95052.06;;;17.27;64.00
52957;BME280;38819;42.692;23.342;2023-05-22T05:32:29;95055.25;;;17.29;63.98
52957;BME280;38819;42.692;23.342;2023-05-22T05:34:55;95057.69;;;17.43;64.21
52957;BME280;38819;42.692;23.342;2023-05-22T05:37:21;95062.69;;;17.53;63.27
52957;BME280;38819;42.692;23.342;2023-05-22T05:39:46;95057.44;;;17.60;62.76
52957;BME280;38819;42.692;23.342;2023-05-22T05:42:12;95056.78;;;17.63;62.86
52957;BME280;38819;42.692;23.342;2023-05-22T05:44:37;95057.44;;;17.72;62.27
52957;BME280;38819;42.692;23.342;2023-05-22T05:47:03;95059.50;;;17.75;61.81
52957;BME280;38819;42.692;23.342;2023-05-22T05:49:28;95058.81;;;17.78;61.29
52957;BME280;38819;42.692;23.342;2023-05-22T05:51:54;95056.19;;;17.82;60.87
52957;BME280;38819;42.692;23.342;2023-05-22T05:54:19;95062.25;;;17.88;61.07
52957;BME280;38819;42.692;23.342;2023-05-22T05:56:45;95062.03;;;17.93;60.70
52957;BME280;38819;42.692;23.342;2023-05-22T05:59:11;95065.06;;;18.04;60.85
52957;BME280;38819;42.692;23.342;2023-05-22T06:01:37;95054.97;;;18.04;60.12
52957;BME280;38819;42.692;23.342;2023-05-22T06:04:04;95063.59;;;18.06;59.78
52957;BME280;38819;42.692;23.342;2023-05-22T06:06:30;95066.88;;;18.12;59.46
52957;BME280;38819;42.692;23.342;2023-05-22T06:09:00;95060.88;;;18.06;58.96
52957;BME280;38819;42.692;23.342;2023-05-22T06:11:25;95062.91;;;17.97;57.93
52957;BME280;38819;42.692;23.342;2023-05-22T06:13:50;95062.38;;;17.91;57.58
52957;BME280;38819;42.692;23.342;2023-05-22T06:16:16;95067.91;;;18.07;58.69
52957;BME280;38819;42.692;23.342;2023-05-22T06:18:41;95062.94;;;18.09;59.00
52957;BME280;38819;42.692;23.342;2023-05-22T06:21:07;95074.31;;;18.11;58.80
52957;BME280;38819;42.692;23.342;2023-05-22T06:23:32;95061.75;;;18.10;58.93
52957;BME280;38819;42.692;23.342;2023-05-22T06:25:57;95065.75;;;18.13;58.97
52957;BME280;38819;42.692;23.342;2023-05-22T06:28:23;95068.78;;;18.24;59.13
52957;BME280;38819;42.692;23.342;2023-05-22T06:30:49;95066.63;;;18.29;59.07
52957;BME280;38819;42.692;23.342;2023-05-22T06:33:14;95067.19;;;18.35;58.88
52957;BME280;38819;42.692;23.342;2023-05-22T06:35:40;95071.97;;;18.38;58.75
52957;BME280;38819;42.692;23.342;2023-05-22T06:38:06;95074.00;;;18.41;58.05
52957;BME280;38819;42.692;23.342;2023-05-22T06:40:31;95067.03;;;18.44;57.45
52957;BME280;38819;42.692;23.342;2023-05-22T06:42:57;95065.00;;;18.41;57.53
52957;BME280;38819;42.692;23.342;2023-05-22T06:45:23;95066.31;;;18.31;56.60
52957;BME280;38819;42.692;23.342;2023-05-22T06:47:54;95065.13;;;18.32;56.63
52957;BME280;38819;42.692;23.342;2023-05-22T06:50:20;95063.75;;;18.38;55.68
52957;BME280;38819;42.692;23.342;2023-05-22T06:52:46;95061.22;;;18.45;56.47
52957;BME280;38819;42.692;23.342;2023-05-22T06:55:12;95067.97;;;18.36;55.59
52957;BME280;38819;42.692;23.342;2023-05-22T06:57:37;95061.66;;;18.47;54.46
52957;BME280;38819;42.692;23.342;2023-05-22T07:00:03;95064.63;;;18.55;53.73
52957;BME280;38819;42.692;23.342;2023-05-22T07:02:33;95065.56;;;18.46;53.94
52957;BME280;38819;42.692;23.342;2023-05-22T07:04:58;95066.78;;;18.49;53.70
52957;BME280;38819;42.692;23.342;2023-05-22T07:07:24;95073.88;;;18.50;54.33
52957;BME280;38819;42.692;23.342;2023-05-22T07:09:50;95070.47;;;18.41;54.30
52957;BME280;38819;42.692;23.342;2023-05-22T07:12:15;95071.03;;;18.34;53.89
52957;BME280;38819;42.692;23.342;2023-05-22T07:14:41;95075.53;;;18.26;55.01
52957;BME280;38819;42.692;23.342;2023-05-22T07:17:06;95063.34;;;18.24;54.88
52957;BME280;38819;42.692;23.342;2023-05-22T07:19:32;95066.97;;;18.28;54.62
52957;BME280;38819;42.692;23.342;2023-05-22T07:21:59;95066.16;;;18.27;54.11
52957;BME280;38819;42.692;23.342;2023-05-22T07:24:25;95061.19;;;18.17;54.28
52957;BME280;38819;42.692;23.342;2023-05-22T07:26:50;95061.75;;;18.23;54.52
52957;BME280;38819;42.692;23.342;2023-05-22T07:29:15;95063.31;;;18.36;54.59
52957;BME280;38819;42.692;23.342;2023-05-22T07:31:41;95069.25;;;18.26;53.82
52957;BME280;38819;42.692;23.342;2023-05-22T07:34:07;95062.75;;;18.30;53.59
52957;BME280;38819;42.692;23.342;2023-05-22T07:36:33;95061.03;;;18.38;53.94
52957;BME280;38819;42.692;23.342;2023-05-22T07:38:59;95061.91;;;18.42;53.82
52957;BME280;38819;42.692;23.342;2023-05-22T07:41:24;95060.97;;;18.50;53.54
52957;BME280;38819;42.692;23.342;2023-05-22T07:43:51;95062.00;;;18.46;53.34
52957;BME280;38819;42.692;23.342;2023-05-22T07:46:16;95056.44;;;18.55;52.61
52957;BME280;38819;42.692;23.342;2023-05-22T07:48:42;95058.66;;;18.65;52.96
52957;BME280;38819;42.692;23.342;2023-05-22T07:51:08;95055.22;;;18.68;53.58
52957;BME280;38819;42.692;23.342;2023-05-22T07:53:34;95059.88;;;18.67;53.36
52957;BME280;38819;42.692;23.342;2023-05-22T07:56:02;95050.44;;;18.65;53.89
52957;BME280;38819;42.692;23.342;2023-05-22T07:58:27;95046.88;;;18.77;53.27
52957;BME280;38819;42.692;23.342;2023-05-22T08:00:53;95048.69;;;18.85;53.40
52957;BME280;38819;42.692;23.342;2023-05-22T08:03:18;95042.16;;;18.90;53.63
52957;BME280;38819;42.692;23.342;2023-05-22T08:05:44;95042.88;;;19.02;53.27
52957;BME280;38819;42.692;23.342;2023-05-22T08:08:10;95042.84;;;19.15;52.83
52957;BME280;38819;42.692;23.342;2023-05-22T08:10:36;95040.50;;;19.01;50.74
52957;BME280;38819;42.692;23.342;2023-05-22T08:13:01;95049.53;;;19.17;51.65
52957;BME280;38819;42.692;23.342;2023-05-22T08:15:31;95051.03;;;19.31;51.24
52957;BME280;38819;42.692;23.342;2023-05-22T08:17:56;95045.66;;;19.34;51.72
52957;BME280;38819;42.692;23.342;2023-05-22T08:20:21;95039.19;;;19.42;51.42
52957;BME280;38819;42.692;23.342;2023-05-22T08:22:47;95048.66;;;19.61;51.29
52957;BME280;38819;42.692;23.342;2023-05-22T08:25:12;95044.00;;;19.61;50.42
52957;BME280;38819;42.692;23.342;2023-05-22T08:27:38;95044.88;;;19.50;48.72
52957;BME280;38819;42.692;23.342;2023-05-22T08:30:04;95045.47;;;19.59;49.65
52957;BME280;38819;42.692;23.342;2023-05-22T08:32:29;95046.72;;;19.61;49.30
52957;BME280;38819;42.692;23.342;2023-05-22T08:34:55;95045.50;;;19.75;49.13
52957;BME280;38819;42.692;23.342;2023-05-22T08:37:20;95044.59;;;19.87;50.09
52957;BME280;38819;42.692;23.342;2023-05-22T08:39:46;95046.00;;;19.96;49.05
52957;BME280;38819;42.692;23.342;2023-05-22T08:42:12;95045.19;;;19.96;46.74
52957;BME280;38819;42.692;23.342;2023-05-22T08:44:38;95042.97;;;20.02;46.57
52957;BME280;38819;42.692;23.342;2023-05-22T08:47:03;95040.66;;;20.04;47.76
52957;BME280;38819;42.692;23.342;2023-05-22T08:49:34;95037.22;;;20.07;45.67
52957;BME280;38819;42.692;23.342;2023-05-22T08:52:06;95039.16;;;20.06;45.21
52957;BME280;38819;42.692;23.342;2023-05-22T08:54:35;95027.47;;;20.09;44.96
52957;BME280;38819;42.692;23.342;2023-05-22T08:57:01;95027.03;;;20.07;41.82
52957;BME280;38819;42.692;23.342;2023-05-22T08:59:27;95033.66;;;20.06;43.04
52957;BME280;38819;42.692;23.342;2023-05-22T09:01:54;95031.97;;;20.17;43.60
52957;BME280;38819;42.692;23.342;2023-05-22T09:04:20;95031.03;;;20.29;44.70
52957;BME280;38819;42.692;23.342;2023-05-22T09:06:48;95031.69;;;20.42;43.54
52957;BME280;38819;42.692;23.342;2023-05-22T09:09:13;95031.69;;;20.42;43.92
52957;BME280;38819;42.692;23.342;2023-05-22T09:11:39;95022.09;;;20.32;42.01
52957;BME280;38819;42.692;23.342;2023-05-22T09:14:08;95028.28;;;20.29;42.80
52957;BME280;38819;42.692;23.342;2023-05-22T09:16:49;95024.91;;;20.36;43.55
52957;BME280;38819;42.692;23.342;2023-05-22T09:19:15;95031.63;;;20.39;43.59
52957;BME280;38819;42.692;23.342;2023-05-22T09:21:41;95030.38;;;20.36;43.53
52957;BME280;38819;42.692;23.342;2023-05-22T09:24:09;95023.47;;;20.42;43.13
52957;BME280;38819;42.692;23.342;2023-05-22T09:26:35;95035.81;;;20.52;43.93
52957;BME280;38819;42.692;23.342;2023-05-22T09:29:01;95027.47;;;20.45;42.71
52957;BME280;38819;42.692;23.342;2023-05-22T09:31:30;95031.69;;;20.42;43.87
52957;BME280;38819;42.692;23.342;2023-05-22T09:33:56;95033.94;;;20.36;46.19
52957;BME280;38819;42.692;23.342;2023-05-22T09:36:29;95034.94;;;20.28;47.04
52957;BME280;38819;42.692;23.342;2023-05-22T09:38:55;95031.31;;;20.24;47.92
52957;BME280;38819;42.692;23.342;2023-05-22T09:41:22;95021.53;;;20.23;47.22
52957;BME280;38819;42.692;23.342;2023-05-22T09:43:50;95026.03;;;20.15;45.39
52957;BME280;38819;42.692;23.342;2023-05-22T09:46:15;95032.44;;;20.04;44.90
52957;BME280;38819;42.692;23.342;2023-05-22T09:48:41;95033.22;;;20.04;45.74
52957;BME280;38819;42.692;23.342;2023-05-22T09:51:07;95035.97;;;20.04;47.15
52957;BME280;38819;42.692;23.342;2023-05-22T09:53:34;95034.22;;;19.96;48.54
52957;BME280;38819;42.692;23.342;2023-05-22T09:56:00;95030.91;;;19.87;49.03
52957;BME280;38819;42.692;23.342;2023-05-22T09:58:32;95030.28;;;19.93;49.21
52957;BME280;38819;42.692;23.342;2023-05-22T10:01:00;95028.09;;;19.83;48.82
52957;BME280;38819;42.692;23.342;2023-05-22T10:03:26;95029.06;;;19.75;49.48
52957;BME280;38819;42.692;23.342;2023-05-22T10:05:54;95035.41;;;19.63;49.33
52957;BME280;38819;42.692;23.342;2023-05-22T10:08:26;95035.75;;;19.61;50.04
52957;BME280;38819;42.692;23.342;2023-05-22T10:10:52;95035.06;;;19.65;50.20
52957;BME280;38819;42.692;23.342;2023-05-22T10:13:18;95037.53;;;19.54;49.94
52957;BME280;38819;42.692;23.342;2023-05-22T10:15:46;95043.00;;;19.54;49.93
52957;BME280;38819;42.692;23.342;2023-05-22T10:18:13;95038.66;;;19.53;50.21
52957;BME280;38819;42.692;23.342;2023-05-22T10:20:40;95050.78;;;19.52;49.66
52957;BME280;38819;42.692;23.342;2023-05-22T10:23:06;95039.06;;;19.51;50.24
52957;BME280;38819;42.692;23.342;2023-05-22T10:25:34;95031.53;;;19.48;50.68
52957;BME280;38819;42.692;23.342;2023-05-22T10:28:02;95045.31;;;19.52;51.57
52957;BME280;38819;42.692;23.342;2023-05-22T10:30:35;95037.97;;;19.40;55.03
52957;BME280;38819;42.692;23.342;2023-05-22T10:35:46;95048.63;;;18.97;54.71
52957;BME280;38819;42.692;23.342;2023-05-22T10:40:58;95075.53;;;18.95;58.82
52957;BME280;38819;42.692;23.342;2023-05-22T10:43:23;95063.56;;;19.00;60.74
52957;BME280;38819;42.692;23.342;2023-05-22T10:46:03;95063.03;;;19.26;62.58
52957;BME280;38819;42.692;23.342;2023-05-22T10:48:39;95058.09;;;19.48;63.55
52957;BME280;38819;42.692;23.342;2023-05-22T10:51:06;95059.34;;;19.66;64.51
52957;BME280;38819;42.692;23.342;2023-05-22T10:53:32;95050.44;;;19.85;67.00
52957;BME280;38819;42.692;23.342;2023-05-22T10:55:59;95043.34;;;20.00;66.72
52957;BME280;38819;42.692;23.342;2023-05-22T10:58:33;95030.66;;;20.11;66.04
52957;BME280;38819;42.692;23.342;2023-05-22T11:01:14;95037.97;;;20.23;65.00
52957;BME280;38819;42.692;23.342;2023-05-22T11:06:33;95036.59;;;20.52;64.67
52957;BME280;38819;42.692;23.342;2023-05-22T11:12:15;95021.69;;;20.69;63.19
52957;BME280;38819;42.692;23.342;2023-05-22T11:15:09;95018.44;;;20.83;61.25
52957;BME280;38819;42.692;23.342;2023-05-22T11:20:05;95015.88;;;20.94;58.85
52957;BME280;38819;42.692;23.342;2023-05-22T11:22:39;95020.28;;;20.99;60.23
52957;BME280;38819;42.692;23.342;2023-05-22T11:25:09;95038.16;;;20.69;59.30
52957;BME280;38819;42.692;23.342;2023-05-22T11:27:36;95066.84;;;20.01;58.35
52957;BME280;38819;42.692;23.342;2023-05-22T11:30:03;95066.00;;;19.81;56.16
52957;BME280;38819;42.692;23.342;2023-05-22T11:32:29;95062.38;;;19.45;58.29
52957;BME280;38819;42.692;23.342;2023-05-22T11:34:55;95068.38;;;19.35;58.70
52957;BME280;38819;42.692;23.342;2023-05-22T11:37:21;95077.53;;;19.27;60.08
52957;BME280;38819;42.692;23.342;2023-05-22T11:39:57;95077.31;;;19.03;58.67
52957;BME280;38819;42.692;23.342;2023-05-22T11:42:23;95083.66;;;18.92;56.35
52957;BME280;38819;42.692;23.342;2023-05-22T11:44:48;95080.31;;;18.98;57.25
52957;BME280;38819;42.692;23.342;2023-05-22T11:47:14;95087.69;;;19.10;57.93
52957;BME280;38819;42.692;23.342;2023-05-22T11:49:40;95083.97;;;19.18;57.14
52957;BME280;38819;42.692;23.342;2023-05-22T11:52:07;95076.28;;;19.24;56.66
52957;BME280;38819;42.692;23.342;2023-05-22T11:54:32;95081.16;;;19.31;56.60
52957;BME280;38819;42.692;23.342;2023-05-22T11:56:58;95077.03;;;19.37;57.14
52957;BME280;38819;42.692;23.342;2023-05-22T11:59:23;95071.28;;;19.42;56.08
52957;BME280;38819;42.692;23.342;2023-05-22T12:01:49;95073.13;;;19.54;55.33
52957;BME280;38819;42.692;23.342;2023-05-22T12:04:15;95077.28;;;19.63;54.95
52957;BME280;38819;42.692;23.342;2023-05-22T12:06:41;95074.72;;;19.71;55.06
52957;BME280;38819;42.692;23.342;2023-05-22T12:09:06;95073.69;;;19.75;54.30
52957;BME280;38819;42.692;23.342;2023-05-22T12:11:36;95068.66;;;19.77;54.84
52957;BME280;38819;42.692;23.342;2023-05-22T12:14:02;95075.47;;;19.84;54.89
52957;BME280;38819;42.692;23.342;2023-05-22T12:16:33;95076.16;;;19.80;55.23
52957;BME280;38819;42.692;23.342;2023-05-22T12:19:06;95079.81;;;19.85;56.33
52957;BME280;38819;42.692;23.342;2023-05-22T12:21:32;95071.03;;;19.79;58.64
52957;BME280;38819;42.692;23.342;2023-05-22T12:24:02;95069.81;;;19.76;59.31
52957;BME280;38819;42.692;23.342;2023-05-22T12:26:28;95068.03;;;19.68;60.57
52957;BME280;38819;42.692;23.342;2023-05-22T12:28:53;95065.63;;;19.67;61.68
52957;BME280;38819;42.692;23.342;2023-05-22T12:31:22;95063.25;;;19.65;61.56
52957;BME280;38819;42.692;23.342;2023-05-22T12:33:48;95065.19;;;19.65;62.14
52957;BME280;38819;42.692;23.342;2023-05-22T12:36:13;95062.53;;;19.68;62.15
52957;BME280;38819;42.692;23.342;2023-05-22T12:38:39;95070.28;;;19.66;61.96
52957;BME280;38819;42.692;23.342;2023-05-22T12:41:05;95066.06;;;19.69;62.40
52957;BME280;38819;42.692;23.342;2023-05-22T12:43:30;95062.63;;;19.72;61.81
52957;BME280;38819;42.692;23.342;2023-05-22T12:45:56;95058.19;;;19.67;61.89
52957;BME280;38819;42.692;23.342;2023-05-22T12:48:21;95061.72;;;19.68;61.92
52957;BME280;38819;42.692;23.342;2023-05-22T12:50:47;95060.22;;;19.70;62.60
52957;BME280;38819;42.692;23.342;2023-05-22T12:53:13;95064.03;;;19.66;63.79
52957;BME280;38819;42.692;23.342;2023-05-22T12:55:39;95065.91;;;19.61;63.72
52957;BME280;38819;42.692;23.342;2023-05-22T12:58:05;95067.94;;;19.65;63.29
52957;BME280;38819;42.692;23.342;2023-05-22T13:00:31;95072.78;;;19.55;63.41
52957;BME280;38819;42.692;23.342;2023-05-22T13:02:57;95063.78;;;19.55;61.83
52957;BME280;38819;42.692;23.342;2023-05-22T13:05:22;95065.72;;;19.38;60.05
52957;BME280;38819;42.692;23.342;2023-05-22T13:07:47;95056.44;;;19.27;58.26
52957;BME280;38819;42.692;23.342;2023-05-22T13:10:13;95057.78;;;19.33;58.63
52957;BME280;38819;42.692;23.342;2023-05-22T13:12:39;95047.50;;;19.46;58.18
52957;BME280;38819;42.692;23.342;2023-05-22T13:15:04;95041.59;;;19.60;58.06
52957;BME280;38819;42.692;23.342;2023-05-22T13:17:30;95045.94;;;19.77;60.77